createdAt,value
2018-09-01T00:00:50.044Z,74.90
2018-09-01T00:03:18.464Z,75.10
2018-09-01T00:05:46.857Z,75.50
2018-09-01T00:08:15.248Z,75.70
2018-09-01T00:10:43.604Z,76.00
2018-09-01T00:13:13.001Z,76.20
2018-09-01T00:15:41.453Z,76.50
2018-09-01T00:18:09.873Z,76.60
2018-09-01T00:20:38.945Z,76.70
2018-09-01T00:23:07.769Z,76.80
2018-09-01T00:25:36.804Z,77.00
2018-09-01T00:28:05.262Z,77.20
2018-09-01T00:30:33.824Z,77.20
2018-09-01T00:33:02.206Z,77.50
2018-09-01T00:35:30.583Z,77.60
2018-09-01T00:38:04.340Z,77.90
2018-09-01T00:40:32.835Z,78.00
2018-09-01T00:43:01.436Z,78.10
2018-09-01T00:45:30.389Z,78.20
2018-09-01T00:47:58.802Z,78.30
2018-09-01T00:50:27.169Z,78.40
2018-09-01T00:52:55.617Z,78.40
2018-09-01T00:55:30.814Z,78.50
2018-09-01T00:57:59.365Z,78.60
2018-09-01T01:00:27.810Z,78.60
2018-09-01T01:02:56.202Z,78.60
2018-09-01T01:05:24.671Z,78.60
2018-09-01T01:07:53.204Z,78.70
2018-09-01T01:10:21.594Z,78.90
2018-09-01T01:12:50.382Z,79.00
2018-09-01T01:15:19.111Z,79.10
2018-09-01T01:17:47.456Z,79.20
2018-09-01T01:20:15.945Z,79.40
2018-09-01T01:22:44.327Z,79.60
2018-09-01T01:25:12.773Z,79.70
2018-09-01T01:27:41.291Z,80.00
2018-09-01T01:30:10.345Z,80.10
2018-09-01T01:32:38.748Z,80.20
2018-09-01T01:35:07.224Z,80.40
2018-09-01T01:37:36.523Z,80.60
2018-09-01T01:40:05.832Z,80.80
2018-09-01T01:42:35.310Z,81.00
2018-09-01T01:45:03.853Z,81.20
2018-09-01T01:47:36.216Z,81.20
2018-09-01T01:50:05.210Z,81.50
2018-09-01T01:52:33.604Z,81.70
2018-09-01T01:55:02.731Z,82.00
2018-09-01T01:57:31.116Z,82.20
2018-09-01T01:59:59.599Z,82.30
2018-09-01T02:02:27.956Z,82.50
2018-09-01T02:04:56.380Z,82.50
2018-09-01T02:07:24.801Z,82.50
2018-09-01T02:09:53.177Z,82.80
2018-09-01T02:12:21.528Z,83.00
2018-09-01T02:14:50.859Z,83.10
2018-09-01T02:17:19.284Z,83.20
2018-09-01T02:19:47.680Z,83.20
2018-09-01T02:22:16.083Z,83.40
2018-09-01T02:24:44.447Z,83.40
2018-09-01T02:27:12.842Z,83.50
2018-09-01T02:29:41.633Z,83.60
2018-09-01T02:32:09.990Z,83.70
2018-09-01T02:34:38.433Z,83.80
2018-09-01T02:37:06.813Z,83.90
2018-09-01T02:39:35.206Z,84.20
2018-09-01T02:42:03.621Z,84.30
2018-09-01T02:44:31.981Z,84.40
2018-09-01T02:47:00.408Z,84.60
2018-09-01T02:49:28.812Z,84.80
2018-09-01T02:51:57.240Z,85.00
2018-09-01T02:54:25.672Z,85.20
2018-09-01T02:56:54.127Z,85.40
2018-09-01T02:59:22.540Z,85.50
2018-09-01T03:01:50.981Z,85.60
2018-09-01T03:04:19.454Z,86.00
2018-09-01T03:06:57.541Z,86.00
2018-09-01T03:09:26.107Z,86.20
2018-09-01T03:11:55.590Z,86.30
2018-09-01T03:14:25.164Z,86.50
2018-09-01T03:16:54.499Z,86.70
2018-09-01T03:19:23.463Z,86.80
2018-09-01T03:21:51.897Z,86.90
2018-09-01T03:24:20.308Z,86.80
2018-09-01T03:26:48.739Z,86.80
2018-09-01T03:29:17.148Z,86.90
2018-09-01T03:31:45.495Z,86.90
2018-09-01T03:34:14.525Z,87.00
2018-09-01T03:36:42.877Z,87.00
2018-09-01T03:39:11.240Z,87.00
2018-09-01T03:41:39.928Z,87.20
2018-09-01T03:44:08.530Z,87.20
2018-09-01T03:46:36.902Z,87.40
2018-09-01T03:49:07.070Z,87.50
2018-09-01T03:51:35.632Z,87.60
2018-09-01T03:54:04.353Z,87.70
2018-09-01T03:56:32.752Z,87.80
2018-09-01T03:59:01.198Z,87.80
2018-09-01T04:01:29.601Z,87.90
2018-09-01T04:03:59.351Z,88.10
2018-09-01T04:06:27.796Z,88.30
2018-09-01T04:08:56.395Z,88.60
2018-09-01T04:11:25.774Z,88.60
2018-09-01T04:13:54.153Z,88.90
2018-09-01T04:16:22.532Z,88.90
2018-09-01T04:18:50.942Z,89.20
2018-09-01T04:21:20.005Z,89.50
2018-09-01T04:23:48.379Z,89.60
2018-09-01T04:26:16.805Z,89.50
2018-09-01T04:28:45.234Z,89.60
2018-09-01T04:31:15.481Z,89.60
2018-09-01T04:33:43.963Z,89.70
2018-09-01T04:36:12.361Z,89.90
2018-09-01T04:38:40.753Z,89.90
2018-09-01T04:41:09.397Z,90.00
2018-09-01T04:43:37.786Z,90.00
2018-09-01T04:46:06.201Z,90.00
2018-09-01T04:48:35.537Z,89.90
2018-09-01T04:51:03.973Z,89.80
2018-09-01T04:53:32.340Z,89.90
2018-09-01T04:56:00.793Z,90.00
2018-09-01T04:58:29.197Z,90.20
2018-09-01T05:00:57.727Z,90.40
2018-09-01T05:03:25.993Z,90.30
2018-09-01T05:05:54.404Z,90.20
2018-09-01T05:08:22.846Z,90.30
2018-09-01T05:10:52.143Z,90.40
2018-09-01T05:13:20.583Z,90.40
2018-09-01T05:15:49.005Z,90.40
2018-09-01T05:18:17.397Z,90.50
2018-09-01T05:20:45.787Z,90.70
2018-09-01T05:23:14.691Z,90.70
2018-09-01T05:25:43.181Z,90.70
2018-09-01T05:28:11.641Z,90.70
2018-09-01T05:30:40.053Z,90.70
2018-09-01T05:33:08.484Z,90.70
2018-09-01T05:35:36.874Z,90.60
2018-09-01T05:38:05.324Z,90.70
2018-09-01T05:40:33.726Z,90.70
2018-09-01T05:43:04.885Z,90.80
2018-09-01T05:45:33.404Z,90.70
2018-09-01T05:48:01.882Z,90.70
2018-09-01T05:50:30.348Z,90.80
2018-09-01T05:52:58.732Z,90.80
2018-09-01T05:55:27.131Z,90.70
2018-09-01T05:57:55.605Z,90.80
2018-09-01T06:00:24.122Z,90.70
2018-09-01T06:02:53.600Z,90.60
2018-09-01T06:05:22.110Z,90.70
2018-09-01T06:07:50.639Z,90.80
2018-09-01T06:10:19.103Z,90.90
2018-09-01T06:12:47.949Z,91.00
2018-09-01T06:15:16.419Z,90.90
2018-09-01T06:17:44.896Z,90.70
2018-09-01T06:20:13.890Z,90.50
2018-09-01T06:22:42.314Z,90.30
2018-09-01T06:25:11.623Z,89.90
2018-09-01T06:27:43.934Z,89.70
2018-09-01T06:30:19.781Z,89.60
2018-09-01T06:32:48.535Z,89.50
2018-09-01T06:35:16.971Z,89.20
2018-09-01T06:37:45.438Z,88.70
2018-09-01T06:40:13.734Z,88.70
2018-09-01T06:42:42.183Z,88.40
2018-09-01T06:45:10.593Z,88.50
2018-09-01T06:47:38.982Z,88.10
2018-09-01T06:50:08.109Z,87.90
2018-09-01T06:52:36.652Z,87.40
2018-09-01T06:55:06.145Z,87.10
2018-09-01T06:57:34.546Z,86.80
2018-09-01T07:00:03.097Z,86.30
2018-09-01T07:02:31.826Z,85.80
2018-09-01T07:05:00.299Z,85.30
2018-09-01T07:07:28.778Z,84.90
2018-09-01T07:09:57.200Z,84.70
2018-09-01T07:12:26.875Z,84.40
2018-09-01T07:14:55.335Z,84.50
2018-09-01T07:17:23.745Z,84.20
2018-09-01T07:19:52.324Z,84.20
2018-09-01T07:22:20.894Z,84.10
2018-09-01T07:24:49.576Z,83.80
2018-09-01T07:27:18.084Z,83.20
2018-09-01T07:29:46.502Z,82.30
2018-09-01T07:32:15.008Z,81.90
2018-09-01T07:34:43.472Z,81.70
2018-09-01T07:37:14.061Z,81.40
2018-09-01T07:39:42.536Z,81.00
2018-09-01T07:42:11.044Z,80.50
2018-09-01T07:44:39.795Z,80.10
2018-09-01T07:47:08.283Z,79.80
2018-09-01T07:49:36.778Z,79.10
2018-09-01T07:52:05.275Z,78.50
2018-09-01T07:54:33.767Z,78.50
2018-09-01T07:57:02.649Z,77.70
2018-09-01T07:59:34.584Z,76.40
2018-09-01T08:02:03.539Z,76.40
2018-09-01T08:04:32.014Z,75.10
2018-09-01T08:07:01.399Z,74.80
2018-09-01T08:09:29.901Z,73.70
2018-09-01T08:12:00.884Z,73.40
2018-09-01T08:14:31.434Z,72.60
2018-09-01T08:16:59.988Z,72.30
2018-09-01T08:19:29.761Z,71.90
2018-09-01T08:21:58.936Z,71.40
2018-09-01T08:24:27.284Z,70.80
2018-09-01T08:26:55.806Z,70.90
2018-09-01T08:29:24.184Z,71.10
2018-09-01T08:31:54.686Z,70.50
2018-09-01T08:34:23.145Z,68.60
2018-09-01T08:36:51.706Z,68.50
2018-09-01T08:39:20.373Z,67.50
2018-09-01T08:41:48.841Z,67.70
2018-09-01T08:44:17.789Z,67.40
2018-09-01T08:46:47.317Z,66.30
2018-09-01T08:49:15.931Z,66.50
2018-09-01T08:51:44.347Z,65.10
2018-09-01T08:54:12.868Z,64.80
2018-09-01T08:56:41.659Z,63.70
2018-09-01T08:59:10.745Z,63.30
2018-09-01T09:01:39.173Z,63.10
2018-09-01T09:04:07.598Z,62.90
2018-09-01T09:06:36.117Z,62.90
2018-09-01T09:09:05.832Z,61.50
2018-09-01T09:11:34.337Z,61.80
2018-09-01T09:14:02.724Z,60.50
2018-09-01T09:16:31.163Z,61.20
2018-09-01T09:18:59.563Z,60.90
2018-09-01T09:21:28.278Z,59.50
2018-09-01T09:23:56.424Z,60.20
2018-09-01T09:26:24.894Z,59.40
2018-09-01T09:28:53.487Z,58.40
2018-09-01T09:31:21.842Z,58.60
2018-09-01T09:33:50.264Z,58.00
2018-09-01T09:36:18.664Z,57.70
2018-09-01T09:38:47.104Z,57.30
2018-09-01T09:41:15.531Z,57.20
2018-09-01T09:43:43.999Z,57.20
2018-09-01T09:46:12.536Z,56.20
2018-09-01T09:48:41.081Z,56.20
2018-09-01T09:51:09.547Z,56.20
2018-09-01T09:53:37.935Z,56.40
2018-09-01T09:56:06.516Z,54.30
2018-09-01T09:58:35.019Z,54.70
2018-09-01T10:01:06.376Z,55.10
2018-09-01T10:03:37.158Z,55.20
2018-09-01T10:06:05.784Z,54.50
2018-09-01T10:08:34.935Z,53.20
2018-09-01T10:11:03.360Z,53.00
2018-09-01T10:13:32.586Z,52.70
2018-09-01T10:16:01.054Z,53.80
2018-09-01T10:18:29.531Z,52.50
2018-09-01T10:20:57.983Z,52.40
2018-09-01T10:23:26.424Z,52.20
2018-09-01T10:25:54.879Z,51.10
2018-09-01T10:28:23.395Z,49.20
2018-09-01T10:30:52.141Z,49.20
2018-09-01T10:33:20.756Z,48.90
2018-09-01T10:35:51.464Z,49.70
2018-09-01T10:38:20.002Z,49.20
2018-09-01T10:40:48.489Z,47.90
2018-09-01T10:43:16.908Z,47.80
2018-09-01T10:45:45.295Z,48.20
2018-09-01T10:48:13.681Z,47.80
2018-09-01T10:50:42.183Z,48.10
2018-09-01T10:53:11.273Z,47.70
2018-09-01T10:55:40.159Z,46.90
2018-09-01T10:58:08.516Z,45.00
2018-09-01T11:00:37.163Z,43.50
2018-09-01T11:03:09.471Z,43.70
2018-09-01T11:05:38.061Z,44.20
2018-09-01T11:08:06.716Z,43.70
2018-09-01T11:10:46.754Z,44.60
2018-09-01T11:13:17.392Z,45.60
2018-09-01T11:15:46.219Z,48.30
2018-09-01T11:18:14.895Z,48.40
2018-09-01T11:20:43.392Z,46.80
2018-09-01T11:23:14.664Z,45.90
2018-09-01T11:25:43.212Z,44.80
2018-09-01T11:28:11.926Z,44.60
2018-09-01T11:30:42.217Z,44.60
2018-09-01T11:33:10.816Z,43.80
2018-09-01T11:35:39.422Z,44.10
2018-09-01T11:38:07.862Z,43.20
2018-09-01T11:40:36.306Z,43.30
2018-09-01T11:43:06.457Z,44.00
2018-09-01T11:45:35.008Z,43.00
2018-09-01T11:48:03.456Z,43.90
2018-09-01T11:50:33.784Z,40.30
2018-09-01T11:53:02.223Z,36.20
2018-09-01T11:55:30.703Z,34.00
2018-09-01T11:57:59.172Z,31.70
2018-09-01T12:00:27.742Z,30.00
2018-09-01T12:02:56.149Z,31.10
2018-09-01T12:05:24.584Z,34.90
2018-09-01T12:07:53.007Z,37.80
2018-09-01T12:10:21.395Z,34.60
2018-09-01T12:12:49.874Z,31.30
2018-09-01T12:15:18.332Z,31.10
2018-09-01T12:17:47.844Z,31.00
2018-09-01T12:20:16.400Z,29.20
2018-09-01T12:22:45.060Z,27.30
2018-09-01T12:25:13.515Z,27.60
2018-09-01T12:27:41.980Z,26.80
2018-09-01T12:30:10.442Z,24.90
2018-09-01T12:32:39.573Z,25.60
2018-09-01T12:35:08.041Z,24.40
2018-09-01T12:37:36.469Z,24.40
2018-09-01T12:40:05.057Z,24.50
2018-09-01T12:42:44.229Z,26.80
2018-09-01T12:45:12.681Z,26.40
2018-09-01T12:47:41.145Z,25.30
2018-09-01T12:50:09.542Z,25.00
2018-09-01T12:52:38.684Z,24.80
2018-09-01T12:55:07.896Z,25.60
2018-09-01T12:57:36.722Z,25.60
2018-09-01T13:00:05.275Z,25.60
2018-09-01T13:02:33.814Z,24.30
2018-09-01T13:05:02.254Z,23.90
2018-09-01T13:07:30.720Z,24.30
2018-09-01T13:09:59.090Z,23.60
2018-09-01T13:12:27.493Z,24.20
2018-09-01T13:14:55.878Z,24.20
2018-09-01T13:17:25.919Z,25.30
2018-09-01T13:19:54.607Z,25.80
2018-09-01T13:22:23.286Z,28.90
2018-09-01T13:24:51.845Z,31.30
2018-09-01T13:27:20.217Z,32.80
2018-09-01T13:29:48.646Z,31.80
2018-09-01T13:32:17.016Z,32.10
2018-09-01T13:34:45.485Z,31.30
2018-09-01T13:37:14.558Z,32.20
2018-09-01T13:39:44.136Z,32.70
2018-09-01T13:42:12.569Z,31.80
2018-09-01T13:44:41.027Z,32.50
2018-09-01T13:47:09.543Z,33.00
2018-09-01T13:49:37.943Z,33.50
2018-09-01T13:52:08.734Z,33.10
2018-09-01T13:54:39.024Z,33.00
2018-09-01T13:57:10.649Z,33.60
2018-09-01T13:59:40.241Z,33.80
2018-09-01T14:02:08.963Z,34.60
2018-09-01T14:04:37.481Z,35.70
2018-09-01T14:07:06.177Z,36.30
2018-09-01T14:09:34.621Z,36.90
2018-09-01T14:12:03.398Z,37.40
2018-09-01T14:14:34.040Z,36.40
2018-09-01T14:17:02.617Z,35.70
2018-09-01T14:19:31.145Z,33.40
2018-09-01T14:22:00.563Z,32.30
2018-09-01T14:24:29.864Z,31.20
2018-09-01T14:26:58.358Z,31.80
2018-09-01T14:29:31.568Z,34.20
2018-09-01T14:32:00.338Z,34.70
2018-09-01T14:34:29.698Z,35.30
2018-09-01T14:36:58.196Z,36.40
2018-09-01T14:39:26.641Z,35.70
2018-09-01T14:41:55.174Z,36.30
2018-09-01T14:44:24.385Z,37.30
2018-09-01T14:46:52.929Z,36.80
2018-09-01T14:49:21.361Z,37.10
2018-09-01T14:51:49.864Z,36.70
2018-09-01T14:54:18.401Z,36.20
2018-09-01T14:56:46.903Z,35.70
2018-09-01T14:59:16.573Z,36.50
2018-09-01T15:01:45.138Z,37.80
2018-09-01T15:04:13.634Z,37.70
2018-09-01T15:06:42.461Z,38.60
2018-09-01T15:09:10.912Z,38.60
2018-09-01T15:11:40.489Z,39.00
2018-09-01T15:14:10.062Z,39.40
2018-09-01T15:16:38.560Z,38.80
2018-09-01T15:19:07.204Z,37.80
2018-09-01T15:21:35.727Z,37.20
2018-09-01T15:24:04.166Z,37.00
2018-09-01T15:26:32.619Z,37.30
2018-09-01T15:29:05.842Z,36.80
2018-09-01T15:31:34.248Z,36.90
2018-09-01T15:34:02.742Z,36.80
2018-09-01T15:36:31.579Z,37.40
2018-09-01T15:39:00.104Z,38.20
2018-09-01T15:41:28.604Z,38.00
2018-09-01T15:43:57.089Z,38.50
2018-09-01T15:46:25.492Z,38.80
2018-09-01T15:48:53.958Z,39.10
2018-09-01T15:51:22.392Z,39.50
2018-09-01T15:53:50.909Z,39.20
2018-09-01T15:56:19.604Z,39.70
2018-09-01T15:58:48.307Z,39.60
2018-09-01T16:01:16.807Z,39.80
2018-09-01T16:03:45.367Z,39.90
2018-09-01T16:06:13.732Z,39.60
2018-09-01T16:08:42.198Z,39.50
2018-09-01T16:11:10.648Z,39.80
2018-09-01T16:13:39.062Z,39.50
2018-09-01T16:16:08.492Z,39.30
2018-09-01T16:18:36.996Z,39.50
2018-09-01T16:21:06.287Z,39.80
2018-09-01T16:23:34.694Z,40.20
2018-09-01T16:26:03.137Z,40.20
2018-09-01T16:28:31.758Z,39.80
2018-09-01T16:31:00.341Z,39.80
2018-09-01T16:33:28.805Z,39.90
2018-09-01T16:35:57.892Z,39.60
2018-09-01T16:38:26.576Z,39.70
2018-09-01T16:40:55.365Z,40.20
2018-09-01T16:43:23.932Z,39.70
2018-09-01T16:45:52.374Z,40.10
2018-09-01T16:48:20.959Z,40.10
2018-09-01T16:50:49.538Z,41.10
2018-09-01T16:53:18.016Z,40.60
2018-09-01T16:55:46.492Z,40.90
2018-09-01T16:58:15.100Z,41.00
2018-09-01T17:00:43.714Z,41.40
2018-09-01T17:03:12.256Z,42.40
2018-09-01T17:05:41.785Z,43.10
2018-09-01T17:08:10.443Z,43.50
2018-09-01T17:10:38.912Z,43.70
2018-09-01T17:13:07.541Z,43.80
2018-09-01T17:15:36.386Z,44.00
2018-09-01T17:18:05.018Z,44.00
2018-09-01T17:20:33.663Z,44.30
2018-09-01T17:23:02.238Z,44.40
2018-09-01T17:25:31.795Z,44.80
2018-09-01T17:28:00.256Z,45.00
2018-09-01T17:30:29.013Z,45.30
2018-09-01T17:32:57.497Z,45.70
2018-09-01T17:35:26.035Z,45.80
2018-09-01T17:37:54.547Z,46.00
2018-09-01T17:40:23.073Z,45.90
2018-09-01T17:42:51.805Z,46.20
2018-09-01T17:45:20.597Z,46.40
2018-09-01T17:47:49.128Z,46.60
2018-09-01T17:50:17.657Z,46.90
2018-09-01T17:52:46.381Z,47.20
2018-09-01T17:55:15.130Z,47.40
2018-09-01T17:57:44.070Z,47.70
2018-09-01T18:00:14.441Z,47.90
2018-09-01T18:02:42.890Z,48.20
2018-09-01T18:05:11.369Z,48.50
2018-09-01T18:07:39.904Z,48.80
2018-09-01T18:10:08.522Z,49.10
2018-09-01T18:12:37.030Z,49.30
2018-09-01T18:15:05.879Z,49.40
2018-09-01T18:17:34.623Z,49.60
2018-09-01T18:20:03.825Z,49.80
2018-09-01T18:22:32.222Z,50.10
2018-09-01T18:25:01.084Z,50.30
2018-09-01T18:27:29.507Z,50.70
2018-09-01T18:29:57.914Z,51.00
2018-09-01T18:32:27.456Z,51.40
2018-09-01T18:34:56.743Z,51.40
2018-09-01T18:37:25.175Z,51.60
2018-09-01T18:39:53.621Z,51.90
2018-09-01T18:42:22.297Z,52.00
2018-09-01T18:44:51.257Z,52.10
2018-09-01T18:47:20.061Z,52.50
2018-09-01T18:49:48.536Z,52.60
2018-09-01T18:52:18.263Z,52.80
2018-09-01T18:54:46.750Z,52.90
2018-09-01T18:57:15.152Z,53.10
2018-09-01T18:59:43.600Z,53.20
2018-09-01T19:02:12.160Z,53.40
2018-09-01T19:04:41.040Z,53.40
2018-09-01T19:07:09.505Z,53.50
2018-09-01T19:09:37.968Z,53.50
2018-09-01T19:12:06.499Z,53.60
2018-09-01T19:14:34.987Z,53.70
2018-09-01T19:17:03.497Z,54.00
2018-09-01T19:19:33.382Z,54.00
2018-09-01T19:22:02.710Z,54.10
2018-09-01T19:24:31.212Z,54.10
2018-09-01T19:26:59.799Z,54.30
2018-09-01T19:29:28.231Z,54.50
2018-09-01T19:31:56.705Z,54.60
2018-09-01T19:34:25.157Z,54.70
2018-09-01T19:36:53.727Z,54.80
2018-09-01T19:39:22.173Z,54.90
2018-09-01T19:41:50.553Z,55.00
2018-09-01T19:44:19.027Z,55.10
2018-09-01T19:46:47.442Z,55.20
2018-09-01T19:49:15.952Z,55.50
2018-09-01T19:51:44.364Z,55.60
2018-09-01T19:54:12.872Z,55.80
2018-09-01T19:56:41.443Z,55.90
2018-09-01T19:59:10.055Z,56.00
2018-09-01T20:01:38.532Z,56.10
2018-09-01T20:04:07.039Z,56.20
2018-09-01T20:06:36.196Z,56.40
2018-09-01T20:09:05.575Z,56.70
2018-09-01T20:11:34.205Z,56.80
2018-09-01T20:14:02.813Z,56.90
2018-09-01T20:16:31.312Z,57.10
2018-09-01T20:18:59.741Z,57.30
2018-09-01T20:21:35.010Z,57.50
2018-09-01T20:24:03.780Z,57.70
2018-09-01T20:26:32.271Z,57.90
2018-09-01T20:29:00.913Z,58.10
2018-09-01T20:31:30.135Z,58.20
2018-09-01T20:33:59.087Z,58.50
2018-09-01T20:36:28.294Z,58.80
2018-09-01T20:38:57.333Z,59.10
2018-09-01T20:41:26.746Z,59.20
2018-09-01T20:43:55.341Z,59.40
2018-09-01T20:46:23.859Z,59.60
2018-09-01T20:48:52.297Z,59.80
2018-09-01T20:51:20.817Z,60.00
2018-09-01T20:53:49.253Z,60.20
2018-09-01T20:56:17.829Z,60.50
2018-09-01T20:58:46.370Z,60.80
2018-09-01T21:01:14.816Z,61.00
2018-09-01T21:03:43.266Z,61.20
2018-09-01T21:06:13.528Z,61.40
2018-09-01T21:08:42.005Z,61.70
2018-09-01T21:11:10.403Z,61.90
2018-09-01T21:13:38.856Z,62.00
2018-09-01T21:16:07.321Z,62.10
2018-09-01T21:18:35.840Z,62.60
2018-09-01T21:21:04.357Z,62.90
2018-09-01T21:23:33.785Z,63.20
2018-09-01T21:26:02.248Z,63.40
2018-09-01T21:28:30.645Z,63.60
2018-09-01T21:30:59.122Z,63.90
2018-09-01T21:33:27.727Z,64.20
2018-09-01T21:35:56.162Z,64.40
2018-09-01T21:38:24.597Z,64.80
2018-09-01T21:40:53.017Z,65.00
2018-09-01T21:43:22.049Z,65.30
2018-09-01T21:45:50.519Z,65.50
2018-09-01T21:48:18.937Z,65.90
2018-09-01T21:50:47.383Z,66.30
2018-09-01T21:53:15.931Z,66.50
2018-09-01T21:55:44.439Z,66.50
2018-09-01T21:58:12.916Z,66.70
2018-09-01T22:00:45.570Z,66.90
2018-09-01T22:03:14.719Z,67.00
2018-09-01T22:05:43.214Z,67.20
2018-09-01T22:08:11.660Z,67.30
2018-09-01T22:10:40.120Z,67.40
2018-09-01T22:13:08.550Z,67.50
2018-09-01T22:15:36.993Z,67.60
2018-09-01T22:18:05.449Z,67.40
2018-09-01T22:20:33.852Z,67.40
2018-09-01T22:23:02.296Z,67.40
2018-09-01T22:25:30.803Z,67.40
2018-09-01T22:27:59.304Z,67.40
2018-09-01T22:30:27.773Z,67.40
2018-09-01T22:32:56.233Z,67.60
2018-09-01T22:35:24.845Z,67.70
2018-09-01T22:37:53.249Z,67.90
2018-09-01T22:40:22.803Z,68.00
2018-09-01T22:42:51.496Z,68.20
2018-09-01T22:45:20.511Z,68.20
2018-09-01T22:47:48.975Z,68.30
2018-09-01T22:50:17.427Z,68.40
2018-09-01T22:52:45.820Z,68.50
2018-09-01T22:55:14.216Z,68.50
2018-09-01T22:57:42.681Z,68.60
2018-09-01T23:00:11.047Z,68.50
2018-09-01T23:02:39.660Z,68.60
2018-09-01T23:05:14.591Z,68.70
2018-09-01T23:07:42.988Z,68.70
2018-09-01T23:10:11.416Z,68.90
2018-09-01T23:12:39.908Z,68.90
2018-09-01T23:15:08.365Z,68.90
2018-09-01T23:17:36.813Z,69.10
2018-09-01T23:20:05.278Z,69.10
2018-09-01T23:22:33.673Z,69.10
2018-09-01T23:25:02.088Z,69.30
2018-09-01T23:27:30.468Z,69.40
2018-09-01T23:29:59.731Z,69.50
2018-09-01T23:32:28.119Z,69.60
2018-09-01T23:34:56.571Z,69.70
2018-09-01T23:37:24.964Z,69.80
2018-09-01T23:39:53.417Z,70.00
2018-09-01T23:42:21.838Z,70.10
2018-09-01T23:44:50.251Z,70.30
2018-09-01T23:47:18.691Z,70.40
2018-09-01T23:49:47.122Z,70.50
2018-09-01T23:52:15.549Z,70.60
2018-09-01T23:54:43.901Z,70.70
2018-09-01T23:57:12.346Z,70.80
2018-09-01T23:59:40.825Z,70.90
